Startpagina
METAR-TAF:

METAR-TAF

Vliegvelden :

Luik, België

Liege Airport

breedte: 50-39N, lengte: 005-27E, hoogte: 186 m

Actueel weer

Dit bericht is 17 minuten geleden gemaakt, om 10:50 UTC
Wind 8 kt uit het oosten, variërend tussen het oostnoordoosten en het zuidoosten
Temperatuur 24°C
Vochtigheid 38%
Druk 1021 hPa
Zicht 10 km of meer
geen wolken onder 1500 m en geen cumulonimbus

METAR: EBLG 261050Z 10008KT 060V140 CAVOK 24/09 Q1021 NOSIG

Tijdstip: 13:07 (11:07 UTC)

Verwachting

Dit bericht is 6 uur en het 7 minuten geleden gemaakt, om 05:00 UTC
Verwachting geldig van 26 om 06 UTC tot 27 om 12 UTC
Wind 8 kt uit het oosten
Zicht 10 km of meer
geen wolken onder 1500 m en geen cumulonimbus
Wijzigt naar
van 27 om 07 UTC tot 27 om 09 UTC
Wind 10 kt uit het zuidzuidoosten

TAF: EBLG 260500Z 2606/2712 08008KT CAVOK BECMG 2707/2709 15010KT

Waarnemingen en weersverwachtingen van meer dan 4000 vliegvelden (METAR en TAF).

De beschikbare stations zijn de gele en rode punten op de kaart.

Ga met uw muis naar het station om de naam te zien.

Klik dan om waarnemingen en weersverwachtingen te zien.

kaart wijzigen: klik op de groene knoppen met een zwart kruis om in te zoomen, op de groene knop met een streepje om uit te zoomen of op de groene pijlen voor aangrenzende kaarten.


METAR-TAF: